Time;durP1;ratioP1;P1;durP2;ratioP2;P2;SDS_P1;SDS_P2;PMS_P1;PMS_P2;Temp;Humidity;BMP_temperature;BMP_pressure;BME280_temperature;BME280_humidity;BME280_pressure;Samples;Min_cycle;Max_cycle;Signal;HPM_P1;HPM_P2
2024/04/24 00:00:01;;;;;;;;;;;;;;;15.45;48.44;99755.31;5293990;27;1126;-50
2024/04/24 00:02:27;;;;;;;;;;;;;;;15.64;48.53;99752.78;5306992;27;1315;-48
2024/04/24 00:04:52;;;;;;;;;;;;;;;15.28;47.86;99749.63;5281991;27;1228;-52
2024/04/24 00:07:18;;;;;;;;;;;;;;;15.09;47.17;99750.31;5304906;27;1221;-49
2024/04/24 00:09:43;;;;;;;;;;;;;;;15.86;48.33;99750.09;5301600;27;1178;-51
2024/04/24 00:12:09;;;;;;;;;;;;;;;15.26;48.56;99739.16;5303296;27;1231;-49
2024/04/24 00:14:35;;;;;;;;;;;;;;;15.08;47.59;99753.94;5281886;27;1256;-50
2024/04/24 00:17:00;;;;;;;;;;;;;;;15.91;48.49;99767.28;5291000;27;1863;-51
2024/04/24 00:19:26;;;;;;;;;;;;;;;15.57;48.89;99735.72;5316048;27;1235;-50
2024/04/24 00:21:51;;;;;;;;;;;;;;;15.17;47.92;99718.72;5285256;27;1217;-51
2024/04/24 00:24:18;;;;;;;;;;;;;;;15.46;48.66;99710.13;5287386;27;1461;-51
2024/04/24 00:26:43;;;;;;;;;;;;;;;15.82;48.47;99738.06;5289816;27;1267;-50
2024/04/24 00:29:09;;;;;;;;;;;;;;;15.34;48.37;99724.41;5315886;27;1181;-52
2024/04/24 00:31:34;;;;;;;;;;;;;;;15.12;47.22;99726.19;5284862;27;1315;-48
2024/04/24 00:34:00;;;;;;;;;;;;;;;14.97;47.02;99721.22;5300965;27;1378;-49
2024/04/24 00:36:26;;;;;;;;;;;;;;;15.24;47.93;99711.94;5308151;27;1827;-49
2024/04/24 00:38:52;;;;;;;;;;;;;;;15.72;48.06;99716.81;5315766;27;1184;-50
2024/04/24 00:41:18;;;;;;;;;;;;;;;15.18;48.00;99704.53;5285130;27;1165;-52
2024/04/24 00:43:43;;;;;;;;;;;;;;;15.09;46.92;99699.97;5281102;27;1288;-51
2024/04/24 00:46:09;;;;;;;;;;;;;;;14.89;46.54;99687.44;5280970;27;1327;-48
2024/04/24 00:48:35;;;;;;;;;;;;;;;15.39;47.78;99688.59;5299478;27;1189;-50
2024/04/24 00:51:00;;;;;;;;;;;;;;;15.99;47.72;99672.97;5292537;27;1331;-48
2024/04/24 00:53:26;;;;;;;;;;;;;;;15.24;48.04;99674.00;5267243;27;1184;-51
2024/04/24 00:55:51;;;;;;;;;;;;;;;15.05;47.39;99672.91;5273980;27;1830;-48
2024/04/24 00:58:17;;;;;;;;;;;;;;;14.83;46.73;99657.97;5281856;27;1299;-51
2024/04/24 01:00:43;;;;;;;;;;;;;;;16.20;47.73;99656.97;5302278;27;1277;-50
2024/04/24 01:03:08;;;;;;;;;;;;;;;15.30;48.26;99645.19;5267004;27;1261;-46
2024/04/24 01:05:35;;;;;;;;;;;;;;;15.05;47.78;99644.59;5281223;27;1257;-51
2024/04/24 01:08:01;;;;;;;;;;;;;;;14.96;46.74;99647.19;5299509;27;1205;-46
2024/04/24 01:10:26;;;;;;;;;;;;;;;14.81;46.56;99648.34;5292290;27;1205;-48
2024/04/24 01:12:52;;;;;;;;;;;;;;;15.22;47.41;99649.44;5298226;27;1142;-53
2024/04/24 01:15:18;;;;;;;;;;;;;;;15.87;47.89;99648.34;5309903;27;1826;-48
2024/04/24 01:17:44;;;;;;;;;;;;;;;15.16;47.95;99646.34;5314843;27;1195;-50
2024/04/24 01:20:15;;;;;;;;;;;;;;;15.16;47.96;99633.09;5308507;27;1220;-49
2024/04/24 01:22:59;;;;;;;;;;;;;;;15.78;48.12;99634.09;5252984;27;1288;-51
2024/04/24 01:25:44;;;;;;;;;;;;;;;15.23;47.91;99627.28;5294429;27;1070;-48
2024/04/24 01:28:09;;;;;;;;;;;;;;;14.92;47.09;99630.72;5311456;27;1296;-49
2024/04/24 01:30:35;;;;;;;;;;;;;;;16.19;47.66;99636.72;5288132;27;1300;-53
2024/04/24 01:33:00;;;;;;;;;;;;;;;15.27;48.56;99634.00;5313334;27;1291;-48
2024/04/24 01:35:26;;;;;;;;;;;;;;;15.04;47.74;99623.56;5300345;27;1825;-47
2024/04/24 01:37:51;;;;;;;;;;;;;;;14.99;46.79;99631.03;5316596;27;1300;-47
2024/04/24 01:40:17;;;;;;;;;;;;;;;16.32;47.54;99627.66;5318153;27;1274;-47
2024/04/24 01:42:43;;;;;;;;;;;;;;;15.30;48.50;99618.69;5317349;27;1294;-47
2024/04/24 01:45:08;;;;;;;;;;;;;;;15.07;47.38;99639.19;5317698;27;1288;-48
2024/04/24 01:47:34;;;;;;;;;;;;;;;15.82;48.35;99637.28;5313551;27;1183;-53
2024/04/24 01:50:00;;;;;;;;;;;;;;;15.37;48.63;99626.09;5311349;27;1013;-48
2024/04/24 01:52:25;;;;;;;;;;;;;;;15.17;47.48;99634.78;5294596;27;1188;-50
2024/04/24 01:54:51;;;;;;;;;;;;;;;14.92;47.02;99609.53;5302877;27;1819;-48
2024/04/24 01:57:16;;;;;;;;;;;;;;;14.97;46.11;99617.94;5305924;27;1225;-48
2024/04/24 01:59:42;;;;;;;;;;;;;;;15.75;47.75;99606.00;5298792;27;1196;-48
2024/04/24 02:02:07;;;;;;;;;;;;;;;15.46;48.01;99608.56;5311244;27;1140;-48
2024/04/24 02:04:33;;;;;;;;;;;;;;;15.03;47.60;99604.16;5299040;27;1221;-50
2024/04/24 02:06:59;;;;;;;;;;;;;;;16.10;48.25;99601.25;5317277;27;1307;-48
2024/04/24 02:09:24;;;;;;;;;;;;;;;15.56;48.35;99593.56;5317122;27;1188;-49
2024/04/24 02:11:50;;;;;;;;;;;;;;;15.13;47.74;99575.09;5290847;27;1260;-47
2024/04/24 02:14:15;;;;;;;;;;;;;;;14.99;47.22;99584.22;5311999;27;1093;-50
2024/04/24 02:16:41;;;;;;;;;;;;;;;14.93;47.47;99556.44;5313667;27;1867;-52
2024/04/24 02:19:06;;;;;;;;;;;;;;;16.05;47.86;99549.59;5283605;27;1287;-51
2024/04/24 02:21:32;;;;;;;;;;;;;;;15.28;48.25;99578.22;5306040;27;1291;-48
2024/04/24 02:24:00;;;;;;;;;;;;;;;15.01;47.13;99561.09;5298075;27;1351;-52
2024/04/24 02:26:25;;;;;;;;;;;;;;;15.46;48.02;99580.25;5286908;27;1033;-49
2024/04/24 02:28:51;;;;;;;;;;;;;;;15.83;47.92;99578.81;5283435;27;1189;-50
2024/04/24 02:31:16;;;;;;;;;;;;;;;15.27;48.17;99575.72;5305787;27;1265;-52
2024/04/24 02:33:42;;;;;;;;;;;;;;;15.06;47.24;99579.25;5297606;27;1182;-49
2024/04/24 02:36:08;;;;;;;;;;;;;;;15.01;46.61;99574.34;5290695;27;1862;-47
2024/04/24 02:38:33;;;;;;;;;;;;;;;15.90;47.92;99579.97;5297989;27;1092;-51
2024/04/24 02:40:59;;;;;;;;;;;;;;;15.49;47.95;99576.50;5286651;27;1291;-51
2024/04/24 02:43:24;;;;;;;;;;;;;;;15.16;47.72;99576.66;5302161;27;1323;-51
2024/04/24 02:45:50;;;;;;;;;;;;;;;15.85;48.35;99576.88;5308725;27;1670;-49
2024/04/24 02:48:16;;;;;;;;;;;;;;;15.64;48.41;99583.13;5317420;27;1148;-54
2024/04/24 02:50:41;;;;;;;;;;;;;;;15.17;47.95;99570.38;5293329;27;1065;-51
2024/04/24 02:53:07;;;;;;;;;;;;;;;15.06;46.86;99561.53;5302249;27;1586;-51
2024/04/24 02:55:32;;;;;;;;;;;;;;;14.88;46.80;99557.81;5305643;27;1834;-52
2024/04/24 02:57:58;;;;;;;;;;;;;;;15.94;47.82;99561.13;5297549;27;1189;-53
2024/04/24 03:00:23;;;;;;;;;;;;;;;15.27;47.93;99565.94;5316410;27;1592;-51
2024/04/24 03:02:49;;;;;;;;;;;;;;;15.38;48.31;99570.31;5299220;27;1046;-51
2024/04/24 03:05:14;;;;;;;;;;;;;;;15.39;48.62;99565.84;5292804;27;1331;-52
2024/04/24 03:07:40;;;;;;;;;;;;;;;15.45;48.57;99562.66;5316599;27;1194;-53
2024/04/24 03:10:06;;;;;;;;;;;;;;;16.83;47.68;99550.50;5293544;27;1370;-53
2024/04/24 03:12:31;;;;;;;;;;;;;;;15.63;48.89;99557.56;5302889;27;1145;-51
2024/04/24 03:14:57;;;;;;;;;;;;;;;16.02;49.62;99556.84;5313891;27;1835;-51
2024/04/24 03:17:22;;;;;;;;;;;;;;;16.13;48.86;99542.59;5317255;27;1193;-53
2024/04/24 03:19:48;;;;;;;;;;;;;;;15.58;48.84;99556.31;5315842;27;1184;-54
2024/04/24 03:22:13;;;;;;;;;;;;;;;15.23;47.91;99556.59;5303732;27;1275;-47
2024/04/24 03:24:39;;;;;;;;;;;;;;;15.14;46.94;99555.59;5306664;27;1259;-49
2024/04/24 03:27:05;;;;;;;;;;;;;;;15.99;47.95;99551.81;5296318;27;1064;-50
2024/04/24 03:29:30;;;;;;;;;;;;;;;15.60;48.44;99552.53;5293924;27;1256;-49
2024/04/24 03:31:56;;;;;;;;;;;;;;;15.22;48.02;99554.06;5303147;27;1220;-57
2024/04/24 03:34:22;;;;;;;;;;;;;;;15.15;47.19;99545.81;5306283;27;1188;-51
2024/04/24 03:36:48;;;;;;;;;;;;;;;15.15;47.25;99540.50;5316340;27;1835;-54
2024/04/24 03:39:14;;;;;;;;;;;;;;;15.95;47.90;99553.00;5306376;27;1085;-52
2024/04/24 03:41:39;;;;;;;;;;;;;;;15.37;47.79;99538.66;5316156;27;1169;-49
2024/04/24 03:44:05;;;;;;;;;;;;;;;15.12;47.16;99527.53;5293394;27;1244;-51
2024/04/24 03:46:31;;;;;;;;;;;;;;;15.00;46.28;99534.72;5302846;27;1117;-48
2024/04/24 03:48:57;;;;;;;;;;;;;;;14.81;46.27;99534.50;5282666;27;1249;-49
2024/04/24 03:51:23;;;;;;;;;;;;;;;16.48;47.49;99534.22;5303111;27;1260;-51
2024/04/24 03:53:48;;;;;;;;;;;;;;;15.46;48.09;99537.00;5283609;27;1279;-51
2024/04/24 03:56:14;;;;;;;;;;;;;;;16.46;48.26;99534.34;5316378;27;1838;-50
2024/04/24 03:58:39;;;;;;;;;;;;;;;16.43;48.67;99529.34;5314628;27;1214;-54
2024/04/24 04:01:05;;;;;;;;;;;;;;;15.61;49.04;99532.16;5294805;27;1299;-49
2024/04/24 04:03:30;;;;;;;;;;;;;;;15.45;48.51;99530.88;5315622;27;1283;-49
2024/04/24 04:05:56;;;;;;;;;;;;;;;16.87;45.80;99530.63;5297144;26;1222;-52
2024/04/24 04:08:22;;;;;;;;;;;;;;;16.43;46.64;99523.19;5303676;27;1329;-50
2024/04/24 04:10:48;;;;;;;;;;;;;;;16.12;47.72;99522.34;5301859;27;1292;-48
2024/04/24 04:13:14;;;;;;;;;;;;;;;15.95;48.21;99533.63;5290346;27;1311;-54
2024/04/24 04:15:39;;;;;;;;;;;;;;;15.82;48.72;99526.75;5294417;27;1890;-51
2024/04/24 04:18:05;;;;;;;;;;;;;;;15.70;48.96;99526.03;5282086;27;1189;-50
2024/04/24 04:20:30;;;;;;;;;;;;;;;15.62;49.15;99547.09;5293678;27;1162;-47
2024/04/24 04:23:00;;;;;;;;;;;;;;;16.24;48.09;99538.13;5292430;27;1177;-51
2024/04/24 04:25:28;;;;;;;;;;;;;;;17.44;44.80;99547.50;5290587;27;1177;-45
2024/04/24 04:27:54;;;;;;;;;;;;;;;16.47;47.51;99545.78;5304376;27;1298;-51
2024/04/24 04:30:20;;;;;;;;;;;;;;;16.06;48.15;99548.59;5294584;27;1185;-49
2024/04/24 04:32:45;;;;;;;;;;;;;;;15.91;48.90;99556.94;5314192;27;1306;-53
2024/04/24 04:35:11;;;;;;;;;;;;;;;15.73;49.19;99557.59;5282182;27;1879;-48
2024/04/24 04:37:36;;;;;;;;;;;;;;;15.62;49.47;99541.78;5284807;27;1287;-49
2024/04/24 04:40:02;;;;;;;;;;;;;;;15.67;50.00;99537.78;5303839;27;1253;-52
2024/04/24 04:42:28;;;;;;;;;;;;;;;17.23;46.20;99549.41;5281655;27;1338;-50
2024/04/24 04:44:54;;;;;;;;;;;;;;;16.97;46.55;99542.06;5281623;27;1150;-53
2024/04/24 04:47:20;;;;;;;;;;;;;;;16.23;48.12;99544.44;5305066;27;1224;-51
2024/04/24 04:49:45;;;;;;;;;;;;;;;16.01;49.24;99547.22;5310006;27;1284;-47
2024/04/24 04:52:11;;;;;;;;;;;;;;;15.84;49.22;99548.69;5304216;27;1125;-50
2024/04/24 04:54:36;;;;;;;;;;;;;;;15.71;49.71;99553.41;5303536;27;1188;-51
2024/04/24 04:57:02;;;;;;;;;;;;;;;16.22;49.05;99562.16;5303483;27;1830;-47
2024/04/24 04:59:28;;;;;;;;;;;;;;;17.60;45.56;99562.84;5311387;27;1172;-50
2024/04/24 05:01:53;;;;;;;;;;;;;;;16.83;47.09;99561.13;5302483;27;1316;-52
2024/04/24 05:04:19;;;;;;;;;;;;;;;16.28;48.62;99558.94;5291572;27;1388;-49
2024/04/24 05:06:44;;;;;;;;;;;;;;;15.99;49.28;99561.56;5292042;27;1533;-50
2024/04/24 05:09:10;;;;;;;;;;;;;;;15.84;49.72;99561.94;5303537;27;1436;-50
2024/04/24 05:11:35;;;;;;;;;;;;;;;15.72;50.15;99561.22;5292448;27;1426;-48
2024/04/24 05:14:01;;;;;;;;;;;;;;;17.23;47.01;99552.06;5295386;27;1284;-49
2024/04/24 05:16:26;;;;;;;;;;;;;;;17.00;47.08;99559.53;5307895;27;1826;-51
2024/04/24 05:18:52;;;;;;;;;;;;;;;16.36;48.40;99555.59;5292781;27;1125;-52
2024/04/24 05:21:18;;;;;;;;;;;;;;;16.00;49.18;99548.16;5304497;27;1193;-46
2024/04/24 05:23:43;;;;;;;;;;;;;;;15.87;49.71;99564.31;5289424;27;1386;-47
2024/04/24 05:29:07;;;;;;;;;;;;;;;17.22;47.39;99576.97;5312707;27;1220;-46
2024/04/24 05:31:33;;;;;;;;;;;;;;;17.22;46.73;99571.66;5293844;27;1522;-50
2024/04/24 05:33:58;;;;;;;;;;;;;;;16.46;48.55;99565.38;5299171;27;1442;-50
2024/04/24 05:36:24;;;;;;;;;;;;;;;16.17;49.16;99575.00;5309740;27;1831;-53
2024/04/24 05:38:49;;;;;;;;;;;;;;;15.97;49.96;99568.78;5302407;27;1271;-53
2024/04/24 05:41:15;;;;;;;;;;;;;;;15.86;49.92;99569.75;5303261;27;1197;-52
2024/04/24 05:43:41;;;;;;;;;;;;;;;16.84;48.22;99565.44;5291424;27;1266;-49
2024/04/24 05:46:06;;;;;;;;;;;;;;;17.30;46.48;99564.78;5305290;27;1164;-53
2024/04/24 05:48:32;;;;;;;;;;;;;;;16.47;48.75;99573.19;5296199;27;1341;-50
2024/04/24 05:50:57;;;;;;;;;;;;;;;16.08;49.93;99566.03;5304530;27;1286;-51
2024/04/24 05:53:23;;;;;;;;;;;;;;;15.92;50.15;99561.25;5283747;27;1356;-49
2024/04/24 05:55:48;;;;;;;;;;;;;;;15.80;50.45;99568.47;5287173;27;1818;-52
2024/04/24 05:58:14;;;;;;;;;;;;;;;17.16;47.62;99561.63;5279318;27;1483;-50
2024/04/24 06:00:40;;;;;;;;;;;;;;;17.33;47.33;99567.97;5305508;27;1352;-50
2024/04/24 06:03:06;;;;;;;;;;;;;;;16.53;48.94;99569.97;5302326;27;1222;-47
2024/04/24 06:05:31;;;;;;;;;;;;;;;16.18;50.01;99570.53;5280027;27;1319;-50
2024/04/24 06:07:57;;;;;;;;;;;;;;;16.11;50.10;99570.25;5282019;27;1643;-51
2024/04/24 06:10:23;;;;;;;;;;;;;;;15.89;50.48;99575.63;5304349;27;1327;-51
2024/04/24 06:12:48;;;;;;;;;;;;;;;15.81;50.68;99577.28;5283158;27;1287;-50
2024/04/24 06:15:14;;;;;;;;;;;;;;;15.87;50.85;99579.38;5295015;27;1818;-52
2024/04/24 06:17:39;;;;;;;;;;;;;;;17.40;47.67;99578.84;5306225;27;1351;-48
2024/04/24 06:20:05;;;;;;;;;;;;;;;16.69;48.81;99584.50;5300617;27;1177;-50
2024/04/24 06:22:31;;;;;;;;;;;;;;;16.23;50.07;99585.03;5283597;27;1173;-50
2024/04/24 06:24:56;;;;;;;;;;;;;;;16.03;50.26;99592.16;5310669;27;1197;-49
2024/04/24 06:27:22;;;;;;;;;;;;;;;17.00;50.61;99583.44;5316162;27;1010;-52
2024/04/24 06:29:47;;;;;;;;;;;;;;;16.97;49.97;99599.66;5289695;27;1301;-48
2024/04/24 06:32:13;;;;;;;;;;;;;;;17.02;49.50;99598.28;5283386;27;1185;-49
2024/04/24 06:34:38;;;;;;;;;;;;;;;16.46;50.58;99590.09;5283202;27;1283;-50
2024/04/24 06:37:05;;;;;;;;;;;;;;;16.14;51.39;99589.38;5299458;27;1833;-50
2024/04/24 06:39:31;;;;;;;;;;;;;;;15.96;51.67;99589.19;5294440;27;1169;-46
2024/04/24 06:41:57;;;;;;;;;;;;;;;15.85;51.70;99584.81;5317044;27;1125;-48
2024/04/24 06:44:22;;;;;;;;;;;;;;;15.72;51.69;99581.56;5294426;27;1212;-47
2024/04/24 06:46:48;;;;;;;;;;;;;;;16.94;49.94;99592.84;5316927;27;1381;-50
2024/04/24 06:49:13;;;;;;;;;;;;;;;17.19;49.23;99593.22;5288830;27;1615;-49
2024/04/24 06:51:39;;;;;;;;;;;;;;;16.48;50.54;99596.09;5298488;27;1107;-47
2024/04/24 06:54:05;;;;;;;;;;;;;;;16.19;51.31;99585.47;5297870;27;1343;-47
2024/04/24 06:56:30;;;;;;;;;;;;;;;15.95;51.69;99597.28;5299136;27;1831;-43
2024/04/24 06:58:56;;;;;;;;;;;;;;;15.87;51.70;99593.50;5303180;27;1253;-49
2024/04/24 07:01:21;;;;;;;;;;;;;;;15.77;51.77;99600.56;5305608;27;1225;-46
2024/04/24 07:03:47;;;;;;;;;;;;;;;17.16;49.29;99600.63;5283025;27;1062;-50
2024/04/24 07:06:12;;;;;;;;;;;;;;;17.12;48.98;99600.94;5308492;27;1311;-46
2024/04/24 07:08:39;;;;;;;;;;;;;;;16.49;50.61;99611.06;5306304;27;1721;-48
2024/04/24 07:11:04;;;;;;;;;;;;;;;16.18;51.09;99613.84;5297882;27;1232;-49
2024/04/24 07:13:30;;;;;;;;;;;;;;;15.98;51.73;99605.81;5301210;27;1331;-46
2024/04/24 07:15:55;;;;;;;;;;;;;;;15.91;51.65;99612.63;5291369;27;1870;-49
2024/04/24 07:18:21;;;;;;;;;;;;;;;16.63;50.80;99614.28;5286266;27;1066;-48
2024/04/24 07:20:47;;;;;;;;;;;;;;;17.72;48.13;99606.84;5301104;27;1546;-49
2024/04/24 07:23:15;;;;;;;;;;;;;;;16.81;49.92;99611.72;5302631;27;1431;-48
2024/04/24 07:25:41;;;;;;;;;;;;;;;16.55;50.62;99601.69;5289568;27;1440;-48
2024/04/24 07:28:06;;;;;;;;;;;;;;;16.25;50.94;99603.47;5289416;27;1153;-49
2024/04/24 07:30:32;;;;;;;;;;;;;;;16.09;51.65;99601.38;5279322;27;1272;-49
2024/04/24 07:32:57;;;;;;;;;;;;;;;15.96;51.84;99594.50;5267821;27;2253;-47
2024/04/24 07:35:23;;;;;;;;;;;;;;;15.82;52.14;99584.25;5290643;27;1875;-48
2024/04/24 07:37:49;;;;;;;;;;;;;;;15.81;51.81;99596.69;5297504;27;1240;-52
2024/04/24 07:40:14;;;;;;;;;;;;;;;16.68;50.56;99597.91;5302252;27;1388;-48
2024/04/24 07:42:40;;;;;;;;;;;;;;;17.63;48.10;99607.75;5292374;27;1404;-48
2024/04/24 07:45:07;;;;;;;;;;;;;;;16.76;50.30;99608.66;5307807;27;1152;-48
2024/04/24 07:47:32;;;;;;;;;;;;;;;16.36;51.51;99602.53;5301951;27;1189;-46
2024/04/24 07:49:58;;;;;;;;;;;;;;;16.22;51.53;99598.47;5299199;27;1107;-46
2024/04/24 07:52:23;;;;;;;;;;;;;;;16.03;51.91;99608.09;5309816;27;1009;-50
2024/04/24 07:54:49;;;;;;;;;;;;;;;15.93;51.77;99612.50;5304044;27;1835;-48
2024/04/24 07:57:15;;;;;;;;;;;;;;;15.85;52.00;99608.69;5291246;27;1684;-47
2024/04/24 07:59:40;;;;;;;;;;;;;;;16.24;52.06;99613.28;5290751;27;1021;-47
2024/04/24 08:02:06;;;;;;;;;;;;;;;17.56;48.97;99619.94;5302166;27;1219;-43
2024/04/24 08:04:31;;;;;;;;;;;;;;;16.79;50.48;99629.63;5287715;27;1192;-48
2024/04/24 08:06:57;;;;;;;;;;;;;;;16.36;51.55;99616.66;5286885;27;1313;-48
2024/04/24 08:09:22;;;;;;;;;;;;;;;16.16;51.86;99613.94;5287296;27;1344;-48
2024/04/24 08:11:48;;;;;;;;;;;;;;;16.09;52.00;99622.59;5288143;27;1286;-45
2024/04/24 08:14:14;;;;;;;;;;;;;;;15.94;52.27;99620.31;5309343;27;1391;-48
2024/04/24 08:16:39;;;;;;;;;;;;;;;16.33;52.11;99614.25;5280510;27;1831;-45
2024/04/24 08:19:05;;;;;;;;;;;;;;;17.52;49.36;99622.06;5284331;27;1167;-53
2024/04/24 08:21:30;;;;;;;;;;;;;;;16.71;51.11;99610.91;5299118;27;1228;-47
2024/04/24 08:23:56;;;;;;;;;;;;;;;16.35;51.51;99607.00;5309655;27;1049;-49
2024/04/24 08:26:21;;;;;;;;;;;;;;;16.14;52.17;99612.41;5298982;27;1084;-45
2024/04/24 08:28:47;;;;;;;;;;;;;;;15.97;52.31;99605.94;5298356;27;1531;-46
2024/04/24 08:31:13;;;;;;;;;;;;;;;15.87;52.38;99605.91;5299030;27;1380;-47
2024/04/24 08:33:39;;;;;;;;;;;;;;;17.02;50.88;99610.72;5291390;27;1653;-48
2024/04/24 08:36:11;;;;;;;;;;;;;;;17.45;48.95;99607.69;5290763;27;1839;-47
2024/04/24 08:38:37;;;;;;;;;;;;;;;16.68;51.18;99604.06;5296162;27;1003;-46
2024/04/24 08:41:04;;;;;;;;;;;;;;;16.36;51.92;99608.69;5281660;27;1168;-43
2024/04/24 08:43:30;;;;;;;;;;;;;;;16.19;52.23;99607.53;5257595;27;1246;-47
2024/04/24 08:45:57;;;;;;;;;;;;;;;16.07;52.47;99617.44;5286002;27;1622;-46
2024/04/24 08:48:22;;;;;;;;;;;;;;;15.95;52.37;99603.41;5280158;27;1133;-46
2024/04/24 08:50:48;;;;;;;;;;;;;;;15.86;52.48;99609.53;5266807;27;1288;-48
2024/04/24 08:53:13;;;;;;;;;;;;;;;16.65;51.73;99613.13;5273748;27;1053;-46
2024/04/24 08:55:39;;;;;;;;;;;;;;;17.68;48.84;99613.47;5278160;27;1862;-52
2024/04/24 08:58:05;;;;;;;;;;;;;;;16.77;51.18;99618.28;5278682;27;1204;-49
2024/04/24 09:00:31;;;;;;;;;;;;;;;16.43;52.28;99606.31;5278654;27;1126;-50
2024/04/24 09:02:58;;;;;;;;;;;;;;;16.25;52.22;99612.28;5276742;27;1344;-50
2024/04/24 09:05:24;;;;;;;;;;;;;;;16.14;52.32;99615.91;5298617;27;1018;-46
2024/04/24 09:07:50;;;;;;;;;;;;;;;16.00;52.60;99608.34;5266600;27;1121;-46
2024/04/24 09:10:15;;;;;;;;;;;;;;;15.90;52.65;99610.94;5276947;27;1357;-44
2024/04/24 09:12:41;;;;;;;;;;;;;;;15.85;52.67;99618.47;5276385;27;1123;-47
2024/04/24 09:15:06;;;;;;;;;;;;;;;16.74;51.79;99615.94;5301618;27;1830;-48
2024/04/24 09:17:34;;;;;;;;;;;;;;;17.49;49.97;99625.00;5313194;27;966;-50
2024/04/24 09:19:59;;;;;;;;;;;;;;;16.72;51.25;99620.53;5291878;27;1172;-48
2024/04/24 09:22:25;;;;;;;;;;;;;;;16.36;52.32;99621.97;5254546;27;1131;-46
2024/04/24 09:24:55;;;;;;;;;;;;;;;16.14;52.81;99626.53;5280534;27;1299;-49
2024/04/24 09:27:21;;;;;;;;;;;;;;;16.06;52.75;99625.53;5293052;27;1114;-47
2024/04/24 09:29:46;;;;;;;;;;;;;;;15.93;52.82;99634.56;5313459;27;1088;-49
2024/04/24 09:32:12;;;;;;;;;;;;;;;15.93;52.61;99621.31;5280665;27;1255;-51
2024/04/24 09:34:40;;;;;;;;;;;;;;;16.85;51.83;99637.03;5281137;27;1206;-48
2024/04/24 09:37:05;;;;;;;;;;;;;;;17.66;49.62;99638.53;5277571;27;1839;-47
2024/04/24 09:39:32;;;;;;;;;;;;;;;16.77;51.66;99637.72;5288600;27;1096;-48
2024/04/24 09:41:58;;;;;;;;;;;;;;;16.48;52.26;99627.13;5308724;27;1100;-47
2024/04/24 09:44:28;;;;;;;;;;;;;;;16.23;52.76;99630.16;5302088;27;1225;-49
2024/04/24 09:46:54;;;;;;;;;;;;;;;16.11;52.92;99633.91;5294189;27;1371;-44
2024/04/24 09:49:22;;;;;;;;;;;;;;;16.04;52.64;99623.00;5260257;27;1172;-47
2024/04/24 09:51:49;;;;;;;;;;;;;;;15.93;52.96;99615.16;5293573;27;1285;-47
2024/04/24 09:54:14;;;;;;;;;;;;;;;15.78;53.16;99604.94;5295040;27;1238;-49
2024/04/24 09:56:45;;;;;;;;;;;;;;;15.82;53.12;99606.31;5294023;27;1826;-47
2024/04/24 09:59:11;;;;;;;;;;;;;;;17.27;51.32;99610.28;5288933;27;1200;-48
2024/04/24 10:01:37;;;;;;;;;;;;;;;17.04;51.37;99607.91;5266544;27;1197;-43
2024/04/24 10:04:03;;;;;;;;;;;;;;;16.52;52.45;99608.13;5272119;27;1301;-44
2024/04/24 10:06:28;;;;;;;;;;;;;;;16.25;52.89;99601.69;5297651;27;1203;-45
2024/04/24 10:08:55;;;;;;;;;;;;;;;16.15;52.73;99599.00;5275429;27;1344;-45
2024/04/24 10:11:34;;;;;;;;;;;;;;;15.97;53.16;99598.81;5262575;27;1232;-47
2024/04/24 10:13:59;;;;;;;;;;;;;;;15.91;52.76;99597.53;5252345;27;1128;-47
2024/04/24 10:16:25;;;;;;;;;;;;;;;15.91;53.42;99602.03;5271867;27;1854;-42
2024/04/24 10:18:51;;;;;;;;;;;;;;;17.29;51.23;99609.13;5300357;27;1225;-48
2024/04/24 10:21:16;;;;;;;;;;;;;;;17.06;51.32;99600.63;5270607;27;1341;-48
2024/04/24 10:23:42;;;;;;;;;;;;;;;16.50;52.62;99601.25;5268969;27;1605;-43
2024/04/24 10:26:08;;;;;;;;;;;;;;;16.26;52.96;99605.19;5298305;27;1259;-43
2024/04/24 10:28:33;;;;;;;;;;;;;;;16.14;53.02;99605.31;5283379;27;1271;-48
2024/04/24 10:31:01;;;;;;;;;;;;;;;16.00;53.30;99603.03;5256137;27;1534;-47
2024/04/24 10:33:27;;;;;;;;;;;;;;;15.90;53.12;99608.28;5290408;27;1492;-46
2024/04/24 10:35:53;;;;;;;;;;;;;;;15.90;53.54;99608.28;5264870;27;1877;-46
2024/04/24 10:38:20;;;;;;;;;;;;;;;17.27;51.07;99605.78;5297760;27;1717;-42
2024/04/24 10:40:46;;;;;;;;;;;;;;;17.14;51.44;99614.06;5285590;27;969;-46
2024/04/24 10:43:13;;;;;;;;;;;;;;;15.58;52.42;99459.03;5265484;27;1224;-42
2024/04/24 10:45:39;;;;;;;;;;;;;;;16.31;52.90;99615.38;5301657;27;1389;-43
2024/04/24 10:48:04;;;;;;;;;;;;;;;16.24;53.00;99609.78;5297196;27;1424;-45
2024/04/24 10:50:30;;;;;;;;;;;;;;;16.05;53.19;99608.75;5274628;27;1198;-43
2024/04/24 10:52:56;;;;;;;;;;;;;;;15.93;53.38;99609.84;5293510;27;1313;-45
2024/04/24 10:55:22;;;;;;;;;;;;;;;15.87;53.24;99605.91;5300427;27;1842;-45
2024/04/24 10:57:48;;;;;;;;;;;;;;;15.80;53.43;99618.88;5296457;27;1321;-46
2024/04/24 11:00:23;;;;;;;;;;;;;;;17.80;53.21;99623.91;5298853;27;1301;-48
2024/04/24 11:02:52;;;;;;;;;;;;;;;17.59;51.45;99628.47;5294264;27;1340;-47
2024/04/24 11:05:18;;;;;;;;;;;;;;;16.76;53.00;99627.25;5295999;27;1164;-47
2024/04/24 11:07:43;;;;;;;;;;;;;;;16.46;53.79;99621.09;5286135;27;1077;-47
2024/04/24 11:10:10;;;;;;;;;;;;;;;16.25;53.54;99625.56;5254567;27;1183;-50
2024/04/24 11:12:39;;;;;;;;;;;;;;;16.25;52.98;99627.38;5269077;27;1117;-48
2024/04/24 11:15:05;;;;;;;;;;;;;;;16.10;53.34;99624.28;5280024;27;1830;-47
2024/04/24 11:17:30;;;;;;;;;;;;;;;15.97;53.44;99622.69;5291492;27;1137;-46
2024/04/24 11:19:56;;;;;;;;;;;;;;;16.07;53.59;99622.75;5307042;27;1348;-48
2024/04/24 11:22:27;;;;;;;;;;;;;;;17.40;52.30;99623.25;5295437;27;1481;-49
2024/04/24 11:24:55;;;;;;;;;;;;;;;16.98;52.39;99615.47;5265569;27;1376;-49
2024/04/24 11:27:26;;;;;;;;;;;;;;;16.48;53.58;99619.97;5301002;27;1332;-49
2024/04/24 11:29:54;;;;;;;;;;;;;;;16.35;53.42;99620.25;5300243;27;1632;-51
2024/04/24 11:32:20;;;;;;;;;;;;;;;16.23;53.34;99624.84;5304958;27;1422;-46
2024/04/24 11:34:46;;;;;;;;;;;;;;;16.05;53.44;99630.00;5287388;27;1620;-50
2024/04/24 11:37:11;;;;;;;;;;;;;;;16.05;53.39;99634.47;5295709;27;1830;-47
2024/04/24 11:39:37;;;;;;;;;;;;;;;16.74;53.37;99631.88;5280384;27;1169;-48
2024/04/24 11:42:03;;;;;;;;;;;;;;;17.46;51.42;99620.84;5301571;27;1020;-48
2024/04/24 11:44:28;;;;;;;;;;;;;;;16.80;52.79;99633.13;5292310;27;1149;-47
2024/04/24 11:46:56;;;;;;;;;;;;;;;16.46;53.29;99627.25;5314677;27;1137;-47
2024/04/24 11:49:23;;;;;;;;;;;;;;;16.32;53.42;99632.97;5286304;27;1236;-45
2024/04/24 11:51:49;;;;;;;;;;;;;;;16.22;53.33;99631.16;5298278;27;1284;-47
2024/04/24 11:54:15;;;;;;;;;;;;;;;16.07;53.37;99627.19;5298445;27;1322;-50
2024/04/24 11:56:41;;;;;;;;;;;;;;;16.01;53.36;99632.09;5300401;27;1827;-47
2024/04/24 11:59:08;;;;;;;;;;;;;;;16.49;53.56;99640.25;5287343;27;1301;-49
2024/04/24 12:01:34;;;;;;;;;;;;;;;17.61;51.11;99644.28;5304080;27;1171;-47
2024/04/24 12:04:00;;;;;;;;;;;;;;;16.89;52.60;99627.81;5291530;27;1138;-48
2024/04/24 12:06:25;;;;;;;;;;;;;;;16.52;53.23;99639.13;5291436;27;1064;-44
2024/04/24 12:08:51;;;;;;;;;;;;;;;16.35;53.59;99630.06;5293917;27;1207;-45
2024/04/24 12:11:16;;;;;;;;;;;;;;;16.28;53.26;99632.41;5293440;27;1327;-44
2024/04/24 12:13:43;;;;;;;;;;;;;;;16.14;53.24;99628.34;5305157;27;1297;-46
2024/04/24 12:16:09;;;;;;;;;;;;;;;16.09;53.11;99627.91;5292026;27;1834;-45
2024/04/24 12:18:34;;;;;;;;;;;;;;;16.00;53.28;99627.75;5293154;27;960;-47
2024/04/24 12:21:00;;;;;;;;;;;;;;;16.56;53.55;99621.97;5287030;27;1288;-42
2024/04/24 12:23:26;;;;;;;;;;;;;;;17.60;51.61;99631.97;5293206;27;1037;-48
2024/04/24 12:25:51;;;;;;;;;;;;;;;16.80;53.20;99630.47;5296678;27;1072;-48
2024/04/24 12:28:17;;;;;;;;;;;;;;;16.48;53.34;99627.13;5302706;27;1315;-47
2024/04/24 12:30:42;;;;;;;;;;;;;;;16.34;53.38;99631.00;5272905;27;1070;-46
2024/04/24 12:33:09;;;;;;;;;;;;;;;16.22;53.41;99638.25;5256561;27;1210;-47
2024/04/24 12:35:35;;;;;;;;;;;;;;;16.09;53.36;99633.22;5281655;27;1874;-47
2024/04/24 12:38:01;;;;;;;;;;;;;;;16.07;53.17;99632.50;5281951;27;1276;-47
2024/04/24 12:40:29;;;;;;;;;;;;;;;16.39;53.63;99621.69;5302558;27;1422;-50
2024/04/24 12:42:55;;;;;;;;;;;;;;;17.66;51.28;99618.09;5284473;27;1392;-48
2024/04/24 12:45:21;;;;;;;;;;;;;;;17.11;52.12;99625.84;5303734;27;1356;-49
2024/04/24 12:47:46;;;;;;;;;;;;;;;16.67;53.07;99622.78;5290250;27;1293;-48
2024/04/24 12:50:12;;;;;;;;;;;;;;;16.47;53.55;99620.13;5303528;27;1261;-48
2024/04/24 12:52:38;;;;;;;;;;;;;;;16.36;53.52;99618.44;5291850;27;1259;-48